Milan, MI (48160)

11:44 AM EST on February 06, 2016 (GMT -0500)
Covington Drive | | Change Station
CLOSE
Current Station
Personal Weather Station
Location: Saline, MI
Elevation: 810 ft
Nearby Weather Stations

Elev 810 ft 42.15 °N, 83.74 °W | Updated 4 minutes ago

Clear
Clear
33.8 °F
Feels Like 34 °F
N
0.0
Wind Variable Wind from South
Gusts 0.0 mph

Today
High -- | Low -- °F
--% Chance of Precip.
Yesterday
High -- | Low -- °F
Precip. -- in
Pressure 30.29 in
Visibility 9.0 miles
Clouds Scattered Clouds 5500 ft
Windchill 34 °F
Dew Point 18 °F
Humidity 51%
Rainfall 0.00 in
Snow Depth Not available.
7:42 AM 5:55 PM
Waning Crescent, 5% visible
METAR KARB 061553Z 23007KT 9SM SCT055 00/M06 A3026 RMK AO2 SLP255 T00001056
Pressure 30.29 in
Visibility 9.0 miles
Clouds Scattered Clouds 5500 ft
Windchill 34 °F
Dew Point 18 °F
Humidity 51%
Rainfall 0.00 in
Snow Depth Not available.
7:42 AM 5:55 PM
Waning Crescent, 5% visible
METAR KARB 061553Z 23007KT 9SM SCT055 00/M06 A3026 RMK AO2 SLP255 T00001056

10-Day Weather Forecast

Almanac

Astronomy

Feb. 06, 2016 Rise Set
Actual Time
Civil Twilight
Nautical Twilight
Astronomical Twilight
Moon
Length of Visible Light
Length of Day
Tomorrow will be .
, % of the Moon is Illuminated

Today's Extremes

State Highs State Lows

Community

WunderPhotos

Upload Photos

1,891,017 photos uploaded!

WunderBlog® & News

Nearby

Air Quality

  Air Quality AQ Index Pollutant
Not available.

Snow Depth

Station Depth Elevation

Earthquake Activity

City Distance Mag. Time & Date
Minimum magnitude displayed is 2.5.

Coastal Water Temperatures

Place Temperature

Stations

Nearby Weather Stations

Station Location Temp. Windchill Dew Point Humidity Wind Precip. Elev Updated Type
                   

Watches & Warnings

There are currently no watches in effect.